Station Historical Data
Daily Summary for January 19, 2017 Units:  Metric    English   Both
« Previous Day
Next Day »
Daily Weekly Monthly Yearly Custom
  High: Low: Average:
Temperature: 13.8 °C 2.7 °C 3.9 °C
Dew Point: 4.4 °C 1.9 °C 3.2 °C
Humidity: 96 % 53 % 95 %
Wind Speed: 33.8 km/h 0 km/h 9.2 km/h
Wind Gust: 38.6 km/h - -
Wind:- - South
Pressure: 1019.5 hPa 1006.7 hPa -
Precipitation: 0 mm    
Historical Graphs
 
 
Tabular Data for January 19, 2017
Time Temperature Dew Point Pressure Wind Wind Speed Wind Gust Humidity Rainfall Rate (Hourly) solar
00:01 5.1 °C 4.4 °C 1010.4 hPa South 32.2 km/h 32.2 km/h 95 % 0 mm 0.00 W/m2
00:06 5.1 °C 4.4 °C 1010.4 hPa South 16.1 km/h 20.9 km/h 95 % 1.78 mm 0.00 W/m2
00:11 5.1 °C 4.4 °C 1010.4 hPa South 11.3 km/h 11.3 km/h 95 % 1.78 mm 0.00 W/m2
00:16 5.1 °C 4.4 °C 1010.4 hPa South 32.2 km/h 32.2 km/h 95 % 1.78 mm 0.00 W/m2
00:21 5.1 °C 4.3 °C 1010.4 hPa SSE 11.3 km/h 19.3 km/h 95 % 1.52 mm 0.00 W/m2
00:26 5.1 °C 4.3 °C 1010.7 hPa South 11.3 km/h 11.3 km/h 95 % 1.27 mm 0.00 W/m2
00:31 5.1 °C 4.3 °C 1010.7 hPa SSW 20.9 km/h 24.1 km/h 95 % 1.27 mm 0.00 W/m2
00:36 5.1 °C 4.3 °C 1011.1 hPa SW 16.1 km/h 30.6 km/h 95 % 1.02 mm 0.00 W/m2
00:41 5.1 °C 4.3 °C 1010.7 hPa South 25.7 km/h 25.7 km/h 95 % 0 mm 0.00 W/m2
00:46 5 °C 4.3 °C 1011.1 hPa SSW 9.7 km/h 22.5 km/h 95 % 0 mm 0.00 W/m2
00:51 5 °C 4.3 °C 1011.1 hPa SSW 30.6 km/h 32.2 km/h 95 % 0 mm 0.00 W/m2
00:56 5 °C 4.3 °C 1010.7 hPa SSW 3.2 km/h 14.5 km/h 95 % 0 mm 0.00 W/m2
01:01 4.9 °C 4.2 °C 1010.7 hPa SSE 19.3 km/h 24.1 km/h 95 % 0 mm 0.00 W/m2
01:06 4.9 °C 4.2 °C 1011.1 hPa South 14.5 km/h 29 km/h 95 % 0 mm 0.00 W/m2
01:11 4.9 °C 4.2 °C 1011.1 hPa South 22.5 km/h 22.5 km/h 95 % 0 mm 0.00 W/m2
01:16 4.9 °C 4.2 °C 1011.1 hPa SSW 24.1 km/h 24.1 km/h 95 % 0 mm 0.00 W/m2
01:21 4.9 °C 4.2 °C 1010.7 hPa South 14.5 km/h 24.1 km/h 95 % 0 mm 0.00 W/m2
01:26 4.9 °C 4.2 °C 1011.1 hPa SSE 16.1 km/h 29 km/h 95 % 1.52 mm 0.00 W/m2
01:31 4.9 °C 4.2 °C 1011.1 hPa South 24.1 km/h 24.1 km/h 95 % 5.84 mm 0.00 W/m2
01:36 5 °C 4.3 °C 1011.1 hPa South 16.1 km/h 19.3 km/h 95 % 2.54 mm 0.00 W/m2
01:41 4.9 °C 4.2 °C 1011.1 hPa South 16.1 km/h 25.7 km/h 95 % 2.29 mm 0.00 W/m2
01:46 5 °C 4.3 °C 1011.1 hPa SSE 20.9 km/h 27.4 km/h 95 % 1.27 mm 0.00 W/m2
01:51 5 °C 4.3 °C 1011.1 hPa SSW 1.6 km/h 17.7 km/h 95 % 1.02 mm 0.00 W/m2
01:56 5 °C 4.3 °C 1011.1 hPa SSE 9.7 km/h 20.9 km/h 95 % 0 mm 0.00 W/m2
02:02 5 °C 4.3 °C 1011.1 hPa SW 8 km/h 16.1 km/h 95 % 0 mm 0.00 W/m2
02:07 5 °C 4.3 °C 1011.1 hPa South 29 km/h 38.6 km/h 95 % 0 mm 0.00 W/m2
02:12 4.9 °C 4.2 °C 1011.1 hPa Calm   19.3 km/h 95 % 0 mm 0.00 W/m2
02:17 5 °C 4.3 °C 1011.1 hPa South 25.7 km/h 29 km/h 95 % 0 mm 0.00 W/m2
02:22 5 °C 4.3 °C 1011.1 hPa South 9.7 km/h 17.7 km/h 95 % 0 mm 0.00 W/m2
02:27 5 °C 4.3 °C 1011.1 hPa SSE 27.4 km/h 30.6 km/h 95 % 0 mm 0.00 W/m2
02:32 5 °C 4.3 °C 1011.1 hPa South 12.9 km/h 20.9 km/h 95 % 1.27 mm 0.00 W/m2
02:37 5 °C 4.3 °C 1011.1 hPa South 16.1 km/h 30.6 km/h 95 % 1.27 mm 0.00 W/m2
02:42 5 °C 4.3 °C 1011.1 hPa South 24.1 km/h 25.7 km/h 95 % 1.27 mm 0.00 W/m2
02:47 5.1 °C 4.3 °C 1011.1 hPa South 24.1 km/h 24.1 km/h 95 % 1.02 mm 0.00 W/m2
02:52 5 °C 4.3 °C 1011.1 hPa South 11.3 km/h 19.3 km/h 95 % 0 mm 0.00 W/m2
02:57 5 °C 4.3 °C 1011.1 hPa Calm   25.7 km/h 95 % 0 mm 0.00 W/m2
03:02 4.9 °C 4.2 °C 1011.1 hPa South 22.5 km/h 30.6 km/h 95 % 3.3 mm 0.00 W/m2
03:07 4.9 °C 4.2 °C 1011.1 hPa SW 12.9 km/h 12.9 km/h 95 % 9.91 mm 0.00 W/m2
03:12 4.9 °C 4.2 °C 1010.7 hPa SSW 4.8 km/h 12.9 km/h 95 % 5.33 mm 0.00 W/m2
03:17 4.9 °C 4.2 °C 1011.1 hPa SSW 20.9 km/h 24.1 km/h 95 % 3.56 mm 0.00 W/m2
03:22 4.9 °C 4.2 °C 1011.1 hPa SSW 9.7 km/h 20.9 km/h 95 % 4.06 mm 0.00 W/m2
03:27 4.8 °C 4.1 °C 1010.7 hPa South 20.9 km/h 33.8 km/h 95 % 2.29 mm 0.00 W/m2
03:32 4.8 °C 4.1 °C 1010.7 hPa SSW 9.7 km/h 20.9 km/h 95 % 3.3 mm 0.00 W/m2
03:37 4.6 °C 3.9 °C 1010.7 hPa SSE 24.1 km/h 33.8 km/h 95 % 2.29 mm 0.00 W/m2
03:42 4.6 °C 3.8 °C 1010.7 hPa SSE 9.7 km/h 16.1 km/h 95 % 2.29 mm 0.00 W/m2
03:47 4.6 °C 3.9 °C 1010.7 hPa SSW 16.1 km/h 25.7 km/h 95 % 1.52 mm 0.00 W/m2
03:52 4.7 °C 4 °C 1010.7 hPa SSW 33.8 km/h 37 km/h 95 % 1.52 mm 0.00 W/m2
03:57 4.8 °C 4.1 °C 1010.7 hPa South 11.3 km/h 32.2 km/h 95 % 1.52 mm 0.00 W/m2
04:02 4.9 °C 4.2 °C 1010.7 hPa South 22.5 km/h 33.8 km/h 95 % 6.6 mm 0.00 W/m2
04:07 4.9 °C 4.2 °C 1010.7 hPa SSW 8 km/h 32.2 km/h 95 % 2.03 mm 0.00 W/m2
04:12 4.8 °C 4.1 °C 1010.7 hPa SSW 17.7 km/h 27.4 km/h 95 % 2.03 mm 0.00 W/m2
04:17 4.7 °C 4 °C 1010.7 hPa Calm   30.6 km/h 95 % 4.06 mm 0.00 W/m2
04:22 4.7 °C 3.9 °C 1010.7 hPa SSW 12.9 km/h 32.2 km/h 95 % 2.54 mm 0.00 W/m2
04:27 4.7 °C 3.9 °C 1010.7 hPa SSE 16.1 km/h 29 km/h 95 % 1.52 mm 0.00 W/m2
04:32 4.7 °C 3.9 °C 1010.7 hPa SW 11.3 km/h 22.5 km/h 95 % 1.02 mm 0.00 W/m2
04:37 4.6 °C 3.8 °C 1011.1 hPa SSW 12.9 km/h 17.7 km/h 95 % 1.02 mm 0.00 W/m2
04:42 4.4 °C 3.7 °C 1010.7 hPa SSW 8 km/h 20.9 km/h 95 % 1.02 mm 0.00 W/m2
04:47 4.4 °C 3.7 °C 1010.7 hPa SSW 9.7 km/h 20.9 km/h 95 % 1.02 mm 0.00 W/m2
04:52 4.3 °C 3.6 °C 1011.1 hPa SW 17.7 km/h 24.1 km/h 95 % 0 mm 0.00 W/m2
04:57 4.2 °C 3.5 °C 1011.1 hPa SSW 17.7 km/h 32.2 km/h 95 % 3.81 mm 0.00 W/m2
05:02 4.1 °C 3.3 °C 1011.1 hPa South 11.3 km/h 22.5 km/h 95 % 1.78 mm 0.00 W/m2
05:07 3.9 °C 3.2 °C 1011.1 hPa South 1.6 km/h 19.3 km/h 95 % 1.27 mm 0.00 W/m2
05:12 3.9 °C 3.2 °C 1010.7 hPa SSW 8 km/h 19.3 km/h 95 % 1.27 mm 0.00 W/m2
05:17 3.8 °C 3.1 °C 1010.7 hPa SSW 6.4 km/h 12.9 km/h 95 % 1.27 mm 0.00 W/m2
05:22 3.7 °C 3 °C 1011.1 hPa South 4.8 km/h 8 km/h 95 % 1.02 mm 0.00 W/m2
05:28 3.7 °C 3 °C 1011.1 hPa South 6.4 km/h 11.3 km/h 95 % 0 mm 0.00 W/m2
05:33 3.7 °C 2.9 °C 1011.1 hPa SSE 12.9 km/h 16.1 km/h 95 % 0 mm 0.00 W/m2
05:38 3.7 °C 2.9 °C 1011.1 hPa SE 9.7 km/h 17.7 km/h 95 % 0 mm 0.00 W/m2
05:43 3.7 °C 2.9 °C 1011.4 hPa SSE 6.4 km/h 19.3 km/h 95 % 0 mm 0.00 W/m2
05:48 3.6 °C 2.9 °C 1011.4 hPa SSE 14.5 km/h 22.5 km/h 95 % 0 mm 0.00 W/m2
05:53 3.6 °C 2.9 °C 1011.4 hPa South 17.7 km/h 20.9 km/h 95 % 0 mm 0.00 W/m2
05:58 3.6 °C 2.8 °C 1011.4 hPa SE 11.3 km/h 19.3 km/h 95 % 0 mm 0.00 W/m2
06:03 3.6 °C 2.8 °C 1011.7 hPa South 14.5 km/h 17.7 km/h 95 % 0 mm 0.00 W/m2
06:08 3.6 °C 2.8 °C 1011.7 hPa SSE 11.3 km/h 17.7 km/h 95 % 0 mm 0.00 W/m2
06:13 3.6 °C 2.8 °C 1011.7 hPa SSE 14.5 km/h 16.1 km/h 95 % 0 mm 0.00 W/m2
06:18 3.6 °C 2.8 °C 1011.7 hPa SSE 11.3 km/h 16.1 km/h 95 % 0 mm 0.00 W/m2
06:23 3.5 °C 2.8 °C 1011.7 hPa South 6.4 km/h 12.9 km/h 95 % 0 mm 0.00 W/m2
06:28 3.5 °C 2.8 °C 1011.7 hPa South 8 km/h 14.5 km/h 95 % 0 mm 0.00 W/m2
06:33 3.5 °C 2.8 °C 1011.7 hPa SSE 9.7 km/h 14.5 km/h 95 % 0 mm 0.00 W/m2
06:38 3.5 °C 2.8 °C 1011.7 hPa South 14.5 km/h 14.5 km/h 95 % 0 mm 0.00 W/m2
06:43 3.5 °C 2.8 °C 1012.1 hPa South 1.6 km/h 14.5 km/h 95 % 14.73 mm 0.00 W/m2
06:48 3.5 °C 2.8 °C 1012.1 hPa South 14.5 km/h 16.1 km/h 95 % 10.16 mm 0.00 W/m2
06:53 3.4 °C 2.7 °C 1012.1 hPa SSE 12.9 km/h 17.7 km/h 95 % 2.29 mm 0.00 W/m2
06:58 3.4 °C 2.7 °C 1012.1 hPa South 6.4 km/h 16.1 km/h 95 % 1.27 mm 0.00 W/m2
07:03 3.4 °C 2.7 °C 1012.1 hPa Calm     95 % 1.02 mm 0.00 W/m2
07:08 3.4 °C 2.7 °C 1011.7 hPa South 8 km/h 12.9 km/h 95 % 0 mm 0.00 W/m2
07:13 3.5 °C 2.8 °C 1011.7 hPa Calm   8 km/h 95 % 0 mm 0.00 W/m2
07:18 3.5 °C 2.8 °C 1011.7 hPa SSE 8 km/h 16.1 km/h 95 % 0 mm 0.00 W/m2
07:23 3.6 °C 2.8 °C 1012.1 hPa South 16.1 km/h 16.1 km/h 95 % 0 mm 0.00 W/m2
07:28 3.6 °C 2.9 °C 1011.7 hPa Calm   16.1 km/h 95 % 0 mm 0.00 W/m2
07:33 3.7 °C 2.9 °C 1011.7 hPa SSE 14.5 km/h 14.5 km/h 95 % 0 mm 0.00 W/m2
07:38 3.7 °C 3 °C 1011.7 hPa South 20.9 km/h 20.9 km/h 95 % 0 mm 0.00 W/m2
07:43 3.8 °C 3.1 °C 1011.7 hPa SSE 1.6 km/h 19.3 km/h 95 % 0 mm 7.00 W/m2
07:48 3.8 °C 3.1 °C 1011.7 hPa SE 17.7 km/h 22.5 km/h 95 % 0 mm 7.00 W/m2
07:53 3.9 °C 3.2 °C 1011.7 hPa SE 11.3 km/h 25.7 km/h 95 % 0 mm 5.00 W/m2
07:58 13.8 °C 4.4 °C 1019.5 hPa Calm   4.8 km/h 53 % 0 mm W/m2
08:03 3.9 °C 3.2 °C 1011.7 hPa SSE 14.5 km/h 20.9 km/h 95 % 0 mm 11.00 W/m2
08:08 3.9 °C 3.2 °C 1011.7 hPa South 16.1 km/h 24.1 km/h 95 % 0 mm 14.00 W/m2
08:13 4 °C 3.3 °C 1011.7 hPa South 22.5 km/h 25.7 km/h 95 % 0 mm 14.00 W/m2
08:18 4 °C 3.3 °C 1011.7 hPa SSE 14.5 km/h 20.9 km/h 95 % 0 mm 11.00 W/m2
08:23 4 °C 3.3 °C 1012.1 hPa SSE 6.4 km/h 20.9 km/h 95 % 0 mm 7.00 W/m2
08:28 4.1 °C 3.3 °C 1012.1 hPa South 11.3 km/h 22.5 km/h 95 % 0 mm 5.00 W/m2
08:33 4.1 °C 3.3 °C 1012.1 hPa South 11.3 km/h 16.1 km/h 95 % 5.33 mm 7.00 W/m2
08:38 4.1 °C 3.3 °C 1012.4 hPa Calm   24.1 km/h 95 % 5.59 mm 5.00 W/m2
08:43 4 °C 3.3 °C 1012.8 hPa SSW 14.5 km/h 30.6 km/h 95 % 4.32 mm 5.00 W/m2
08:48 3.8 °C 3.1 °C 1013.1 hPa WSW 14.5 km/h 29 km/h 95 % 4.57 mm 0.00 W/m2
08:53 3.7 °C 3 °C 1013.1 hPa West 9.7 km/h 20.9 km/h 95 % 7.87 mm 0.00 W/m2
08:58 3.4 °C 2.7 °C 1013.1 hPa Calm   11.3 km/h 95 % 11.94 mm 5.00 W/m2
09:03 3.1 °C 2.3 °C 1013.1 hPa Calm     95 % 6.6 mm 19.00 W/m2
09:08 2.8 °C 2.1 °C 1013.1 hPa Calm     95 % 3.05 mm 9.00 W/m2
09:13 2.7 °C 1.9 °C 1013.1 hPa Calm     95 % 1.78 mm 12.00 W/m2
09:18 2.7 °C 1.9 °C 1013.1 hPa Calm     95 % 3.56 mm 65.00 W/m2
09:23 2.7 °C 1.9 °C 1013.4 hPa Calm     95 % 5.08 mm 40.00 W/m2
09:28 2.7 °C 2 °C 1013.4 hPa Calm     95 % 3.05 mm 21.00 W/m2
09:34 2.7 °C 2 °C 1013.8 hPa Calm     95 % 1.52 mm 12.00 W/m2
09:39 2.8 °C 2.1 °C 1013.8 hPa Calm     95 % 1.02 mm 25.00 W/m2
09:44 2.9 °C 2.2 °C 1013.8 hPa South 12.9 km/h 20.9 km/h 95 % 0 mm 19.00 W/m2
09:49 3 °C 2.3 °C 1013.8 hPa South 14.5 km/h 17.7 km/h 95 % 0 mm 30.00 W/m2
09:54 3.1 °C 2.3 °C 1013.8 hPa SSE 19.3 km/h 20.9 km/h 95 % 0 mm 44.00 W/m2
09:59 3.2 °C 2.4 °C 1013.8 hPa Calm   16.1 km/h 95 % 0 mm 42.00 W/m2
10:04 3.3 °C 2.6 °C 1013.8 hPa SSW 8 km/h 17.7 km/h 95 % 0 mm 32.00 W/m2
10:09 3.3 °C 2.6 °C 1013.8 hPa Calm   1.6 km/h 95 % 0 mm 58.00 W/m2
10:14 3.4 °C 2.7 °C 1013.8 hPa South 8 km/h 16.1 km/h 95 % 0 mm 35.00 W/m2
10:19 3.5 °C 2.8 °C 1014.1 hPa SSE 11.3 km/h 14.5 km/h 95 % 0 mm 46.00 W/m2
10:24 3.5 °C 2.8 °C 1013.8 hPa Calm   19.3 km/h 95 % 0 mm 81.00 W/m2
10:29 3.6 °C 2.8 °C 1013.8 hPa Calm     95 % 0 mm 109.00 W/m2
10:34 3.6 °C 2.8 °C 1013.8 hPa Calm     95 % 0 mm 63.00 W/m2
10:39 3.6 °C 2.9 °C 1013.8 hPa Calm     95 % 0 mm 62.00 W/m2
10:44 3.6 °C 2.9 °C 1013.8 hPa SSE 14.5 km/h 17.7 km/h 95 % 0 mm 72.00 W/m2
10:49 3.6 °C 2.9 °C 1013.8 hPa SSE 6.4 km/h 16.1 km/h 95 % 0 mm 86.00 W/m2
10:54 3.6 °C 2.9 °C 1013.8 hPa SSE 1.6 km/h 16.1 km/h 95 % 0 mm 91.00 W/m2
10:59 3.6 °C 2.9 °C 1013.8 hPa Calm     95 % 0 mm 83.00 W/m2
11:04 3.6 °C 2.9 °C 1013.8 hPa SE 8 km/h 17.7 km/h 95 % 0 mm 65.00 W/m2
11:09 3.6 °C 2.9 °C 1013.8 hPa SE 12.9 km/h 20.9 km/h 95 % 0 mm 100.00 W/m2
11:14 3.6 °C 2.9 °C 1013.8 hPa SE 9.7 km/h 16.1 km/h 95 % 0 mm 139.00 W/m2
11:19 3.6 °C 2.9 °C 1013.8 hPa SSE 9.7 km/h 17.7 km/h 95 % 0 mm 90.00 W/m2
11:24 3.6 °C 2.9 °C 1013.8 hPa Calm   16.1 km/h 95 % 0 mm 127.00 W/m2
11:29 3.6 °C 2.8 °C 1013.4 hPa Calm   14.5 km/h 95 % 0 mm 83.00 W/m2
11:34 3.6 °C 2.9 °C 1013.4 hPa SE 12.9 km/h 16.1 km/h 95 % 0 mm 135.00 W/m2
11:39 3.6 °C 2.9 °C 1013.4 hPa ESE 9.7 km/h 17.7 km/h 95 % 0 mm 130.00 W/m2
11:44 3.7 °C 2.9 °C 1013.4 hPa SE 11.3 km/h 19.3 km/h 95 % 0 mm 142.00 W/m2
11:49 3.7 °C 3 °C 1013.1 hPa SE 17.7 km/h 19.3 km/h 95 % 0 mm 109.00 W/m2
11:54 3.8 °C 3.1 °C 1013.1 hPa SE 3.2 km/h 12.9 km/h 95 % 0 mm 67.00 W/m2
11:59 3.8 °C 3.1 °C 1013.1 hPa SE 6.4 km/h 14.5 km/h 95 % 0 mm 79.00 W/m2
12:04 3.8 °C 3.1 °C 1013.1 hPa Calm     95 % 0 mm 49.00 W/m2
12:09 3.8 °C 3.1 °C 1013.1 hPa Calm   1.6 km/h 95 % 0 mm 47.00 W/m2
12:14 3.8 °C 3.1 °C 1012.8 hPa Calm     95 % 2.29 mm 69.00 W/m2
12:19 3.8 °C 3.1 °C 1012.8 hPa Calm     95 % 2.29 mm 63.00 W/m2
12:24 3.8 °C 3.1 °C 1012.8 hPa Calm     95 % 2.54 mm 40.00 W/m2
12:29 3.8 °C 3.1 °C 1012.8 hPa Calm     95 % 5.84 mm 88.00 W/m2
12:34 3.7 °C 3 °C 1012.4 hPa Calm     95 % 4.06 mm 137.00 W/m2
12:39 3.7 °C 3 °C 1012.4 hPa Calm     95 % 4.06 mm 54.00 W/m2
12:44 3.7 °C 3 °C 1012.4 hPa Calm     95 % 4.83 mm 46.00 W/m2
12:49 3.8 °C 3.1 °C 1012.4 hPa Calm     95 % 2.54 mm 26.00 W/m2
12:54 3.7 °C 3 °C 1012.4 hPa Calm     95 % 5.59 mm 26.00 W/m2
12:59 3.7 °C 3 °C 1012.4 hPa Calm     95 % 4.06 mm 18.00 W/m2
13:04 3.7 °C 3 °C 1012.1 hPa Calm     95 % 4.57 mm 12.00 W/m2
13:09 3.7 °C 3 °C 1012.1 hPa Calm     95 % 7.37 mm 26.00 W/m2
13:15 3.7 °C 3 °C 1012.1 hPa Calm     95 % 3.56 mm 32.00 W/m2
13:20 3.7 °C 3 °C 1012.1 hPa Calm     95 % 5.59 mm 26.00 W/m2
13:25 3.7 °C 2.9 °C 1012.1 hPa Calm     95 % 3.81 mm 42.00 W/m2
13:30 3.7 °C 2.9 °C 1012.1 hPa SSE 3.2 km/h 14.5 km/h 95 % 2.03 mm 102.00 W/m2
13:35 3.6 °C 2.9 °C 1012.1 hPa Calm     95 % 2.03 mm 95.00 W/m2
13:40 3.7 °C 2.9 °C 1012.1 hPa Calm     95 % 1.27 mm 97.00 W/m2
13:45 3.7 °C 2.9 °C 1011.7 hPa Calm     95 % 0 mm 58.00 W/m2
13:50 3.7 °C 3 °C 1011.7 hPa Calm     95 % 0 mm 58.00 W/m2
13:55 3.8 °C 3.1 °C 1011.7 hPa Calm     95 % 0 mm 51.00 W/m2
14:00 3.8 °C 3.1 °C 1011.7 hPa Calm     95 % 0 mm 49.00 W/m2
14:05 3.8 °C 3.1 °C 1011.7 hPa Calm     95 % 0 mm 70.00 W/m2
14:10 3.8 °C 3.1 °C 1011.7 hPa Calm     95 % 0 mm 83.00 W/m2
14:15 3.8 °C 3.1 °C 1011.7 hPa Calm   12.9 km/h 95 % 1.02 mm 90.00 W/m2
14:20 3.8 °C 3.1 °C 1011.7 hPa Calm     95 % 1.02 mm 46.00 W/m2
14:25 3.9 °C 3.2 °C 1011.7 hPa Calm     95 % 1.02 mm 49.00 W/m2
14:30 3.9 °C 3.2 °C 1011.4 hPa SE 9.7 km/h 14.5 km/h 95 % 1.02 mm 26.00 W/m2
14:35 3.9 °C 3.2 °C 1011.4 hPa SE 12.9 km/h 12.9 km/h 95 % 1.02 mm 33.00 W/m2
14:40 3.9 °C 3.2 °C 1011.4 hPa Calm   1.6 km/h 95 % 1.02 mm 40.00 W/m2
14:45 4 °C 3.3 °C 1011.4 hPa SSE 9.7 km/h 16.1 km/h 95 % 0 mm 37.00 W/m2
14:50 4 °C 3.3 °C 1011.4 hPa Calm   19.3 km/h 95 % 0 mm 42.00 W/m2
14:55 3.9 °C 3.2 °C 1011.4 hPa SSE 14.5 km/h 16.1 km/h 95 % 0 mm 26.00 W/m2
15:00 3.9 °C 3.2 °C 1011.4 hPa SSE 9.7 km/h 20.9 km/h 95 % 3.3 mm 26.00 W/m2
15:05 3.8 °C 3.1 °C 1011.4 hPa SSE 6.4 km/h 17.7 km/h 95 % 5.08 mm 33.00 W/m2
15:10 3.8 °C 3.1 °C 1011.4 hPa SE 11.3 km/h 17.7 km/h 95 % 3.3 mm 51.00 W/m2
15:15 3.7 °C 3 °C 1011.4 hPa Calm   14.5 km/h 95 % 1.52 mm 67.00 W/m2
15:20 3.7 °C 2.9 °C 1011.4 hPa South 6.4 km/h 20.9 km/h 95 % 1.02 mm 44.00 W/m2
15:25 3.7 °C 2.9 °C 1011.4 hPa SSE 11.3 km/h 16.1 km/h 95 % 0 mm 40.00 W/m2
15:30 3.6 °C 2.9 °C 1011.4 hPa SE 11.3 km/h 17.7 km/h 95 % 3.81 mm 33.00 W/m2
15:35 3.6 °C 2.9 °C 1011.4 hPa SE 3.2 km/h 16.1 km/h 95 % 2.54 mm 47.00 W/m2
15:40 3.6 °C 2.9 °C 1011.4 hPa SE 11.3 km/h 14.5 km/h 95 % 1.27 mm 60.00 W/m2
15:45 3.7 °C 2.9 °C 1011.4 hPa SE 6.4 km/h 27.4 km/h 95 % 1.02 mm 54.00 W/m2
15:50 3.7 °C 2.9 °C 1011.4 hPa SE 11.3 km/h 17.7 km/h 95 % 0 mm 49.00 W/m2
15:55 3.7 °C 2.9 °C 1011.4 hPa SE 11.3 km/h 16.1 km/h 95 % 0 mm 53.00 W/m2
16:00 3.7 °C 3 °C 1011.4 hPa SE 1.6 km/h 16.1 km/h 95 % 0 mm 81.00 W/m2
16:05 3.8 °C 3.1 °C 1011.4 hPa SE 8 km/h 14.5 km/h 95 % 0 mm 46.00 W/m2
16:10 3.8 °C 3.1 °C 1011.4 hPa South 6.4 km/h 17.7 km/h 95 % 0 mm 28.00 W/m2
16:15 3.8 °C 3.1 °C 1011.7 hPa SE 14.5 km/h 20.9 km/h 95 % 0 mm 32.00 W/m2
16:20 3.8 °C 3.1 °C 1011.7 hPa SE 8 km/h 16.1 km/h 95 % 0 mm 33.00 W/m2
16:26 3.9 °C 3.2 °C 1011.7 hPa SE 3.2 km/h 17.7 km/h 95 % 0 mm 18.00 W/m2
16:31 3.9 °C 3.2 °C 1011.7 hPa SE 1.6 km/h 16.1 km/h 95 % 0 mm 16.00 W/m2
16:36 3.9 °C 3.2 °C 1011.7 hPa Calm   14.5 km/h 95 % 0 mm 62.00 W/m2
16:41 3.9 °C 3.2 °C 1011.7 hPa Calm   14.5 km/h 95 % 0 mm 39.00 W/m2
16:46 3.9 °C 3.2 °C 1011.7 hPa Calm     95 % 0 mm 12.00 W/m2
16:51 3.9 °C 3.2 °C 1011.7 hPa Calm   16.1 km/h 95 % 0 mm 7.00 W/m2
16:56 3.9 °C 3.2 °C 1011.7 hPa Calm     95 % 0 mm 7.00 W/m2
17:01 3.9 °C 3.2 °C 1011.7 hPa Calm     95 % 0 mm 5.00 W/m2
17:06 3.8 °C 3.1 °C 1011.7 hPa Calm     95 % 0 mm 0.00 W/m2
17:11 3.8 °C 3.1 °C 1011.7 hPa Calm     95 % 0 mm 0.00 W/m2
17:16 3.8 °C 3.1 °C 1011.7 hPa Calm     95 % 0 mm 0.00 W/m2
17:21 3.8 °C 3.1 °C 1011.7 hPa Calm     95 % 0 mm 0.00 W/m2
17:26 3.8 °C 3.1 °C 1011.7 hPa Calm     95 % 0 mm 0.00 W/m2
17:31 3.8 °C 3.1 °C 1011.7 hPa Calm     95 % 0 mm 0.00 W/m2
17:36 3.8 °C 3.1 °C 1011.7 hPa Calm     95 % 0 mm 0.00 W/m2
17:41 3.8 °C 3.1 °C 1011.7 hPa Calm     95 % 0 mm 0.00 W/m2
17:46 3.8 °C 3.1 °C 1011.7 hPa Calm     95 % 0 mm 0.00 W/m2
17:51 3.8 °C 3.1 °C 1011.7 hPa Calm     95 % 0 mm 0.00 W/m2
17:56 3.8 °C 3.1 °C 1011.4 hPa Calm     95 % 0 mm 0.00 W/m2
18:01 3.8 °C 3.1 °C 1011.4 hPa ESE 19.3 km/h 24.1 km/h 95 % 0 mm 0.00 W/m2
18:06 3.8 °C 3.1 °C 1011.4 hPa Calm   20.9 km/h 95 % 0 mm 0.00 W/m2
18:11 3.8 °C 3.1 °C 1011.4 hPa SE 14.5 km/h 14.5 km/h 95 % 0 mm 0.00 W/m2
18:16 3.8 °C 3.1 °C 1011.1 hPa SSE 17.7 km/h 19.3 km/h 95 % 0 mm 0.00 W/m2
18:21 3.8 °C 3.1 °C 1011.1 hPa SE 8 km/h 16.1 km/h 95 % 0 mm 0.00 W/m2
18:26 3.8 °C 3.1 °C 1011.1 hPa SE 11.3 km/h 14.5 km/h 95 % 0 mm 0.00 W/m2
18:31 3.8 °C 3.1 °C 1011.1 hPa SSE 12.9 km/h 12.9 km/h 95 % 0 mm 0.00 W/m2
18:36 3.9 °C 3.2 °C 1010.7 hPa Calm     95 % 0 mm 0.00 W/m2
18:41 3.9 °C 3.2 °C 1010.7 hPa SSE 11.3 km/h 16.1 km/h 95 % 0 mm 0.00 W/m2
18:46 3.9 °C 3.2 °C 1010.7 hPa SE 6.4 km/h 6.4 km/h 95 % 0 mm 0.00 W/m2
18:51 3.9 °C 3.2 °C 1010.4 hPa SSE 11.3 km/h 11.3 km/h 95 % 0 mm 0.00 W/m2
18:56 3.9 °C 3.2 °C 1010.4 hPa SSE 9.7 km/h 14.5 km/h 95 % 0 mm 0.00 W/m2
19:01 4 °C 3.3 °C 1010.4 hPa Calm     95 % 0 mm 0.00 W/m2
19:06 4 °C 3.3 °C 1010.4 hPa Calm     95 % 0 mm 0.00 W/m2
19:11 4 °C 3.3 °C 1010 hPa Calm     95 % 0 mm 0.00 W/m2
19:16 4.1 °C 3.5 °C 1010.4 hPa Calm     96 % 0 mm 0.00 W/m2
19:21 4.1 °C 3.5 °C 1010 hPa Calm     96 % 10.92 mm 0.00 W/m2
19:26 4 °C 3.4 °C 1010.4 hPa South 14.5 km/h 19.3 km/h 96 % 10.92 mm 0.00 W/m2
19:31 3.9 °C 3.2 °C 1010 hPa SSE 11.3 km/h 16.1 km/h 95 % 3.81 mm 0.00 W/m2
19:36 3.8 °C 3.1 °C 1010 hPa SSE 11.3 km/h 16.1 km/h 95 % 3.81 mm 0.00 W/m2
19:41 3.8 °C 3.1 °C 1010 hPa SSE 14.5 km/h 14.5 km/h 95 % 3.81 mm 0.00 W/m2
19:46 3.7 °C 3 °C 1010 hPa Calm     95 % 3.05 mm 0.00 W/m2
19:51 3.7 °C 2.9 °C 1010 hPa Calm     95 % 7.11 mm 0.00 W/m2
19:57 3.6 °C 2.8 °C 1010 hPa Calm     95 % 5.84 mm 0.00 W/m2
20:01 3.5 °C 2.8 °C 1010 hPa Calm     95 % 5.59 mm 0.00 W/m2
20:07 3.4 °C 2.7 °C 1010 hPa Calm     95 % 4.06 mm 0.00 W/m2
20:12 3.4 °C 2.7 °C 1010 hPa SSE 11.3 km/h 19.3 km/h 95 % 5.08 mm 0.00 W/m2
20:17 3.4 °C 2.7 °C 1010 hPa South 19.3 km/h 25.7 km/h 95 % 5.08 mm 0.00 W/m2
20:22 3.4 °C 2.7 °C 1009.7 hPa SSE 3.2 km/h 14.5 km/h 95 % 6.86 mm 0.00 W/m2
20:27 3.4 °C 2.7 °C 1009.4 hPa SSE 3.2 km/h 12.9 km/h 95 % 2.54 mm 0.00 W/m2
20:32 3.4 °C 2.7 °C 1009.7 hPa SSE 9.7 km/h 16.1 km/h 95 % 1.52 mm 0.00 W/m2
20:37 3.3 °C 2.6 °C 1009.4 hPa SSE 8 km/h 16.1 km/h 95 % 1.02 mm 0.00 W/m2
20:42 3.3 °C 2.6 °C 1009.4 hPa SSE 19.3 km/h 22.5 km/h 95 % 0 mm 0.00 W/m2
20:47 3.3 °C 2.6 °C 1009.4 hPa SSE 9.7 km/h 14.5 km/h 95 % 0 mm 0.00 W/m2
20:52 3.4 °C 2.7 °C 1009 hPa SSE 8 km/h 17.7 km/h 95 % 0 mm 0.00 W/m2
20:57 3.4 °C 2.7 °C 1009 hPa SE 19.3 km/h 24.1 km/h 95 % 0 mm 0.00 W/m2
21:02 3.4 °C 2.7 °C 1009 hPa SSE 6.4 km/h 14.5 km/h 95 % 1.02 mm 0.00 W/m2
21:07 3.4 °C 2.7 °C 1009 hPa SSE 17.7 km/h 19.3 km/h 95 % 1.02 mm 0.00 W/m2
21:12 3.4 °C 2.7 °C 1009 hPa ESE 17.7 km/h 24.1 km/h 95 % 1.02 mm 0.00 W/m2
21:17 3.4 °C 2.7 °C 1009 hPa South 20.9 km/h 27.4 km/h 95 % 1.02 mm 0.00 W/m2
21:22 3.4 °C 2.7 °C 1009 hPa South 17.7 km/h 17.7 km/h 95 % 0 mm 0.00 W/m2
21:27 3.4 °C 2.7 °C 1009 hPa SSE 9.7 km/h 16.1 km/h 95 % 0 mm 0.00 W/m2
21:32 3.5 °C 2.8 °C 1009 hPa SSE 12.9 km/h 12.9 km/h 95 % 0 mm 0.00 W/m2
21:37 3.5 °C 2.8 °C 1009 hPa South 4.8 km/h 16.1 km/h 95 % 0 mm 0.00 W/m2
21:42 3.5 °C 2.8 °C 1009.4 hPa SSE 8 km/h 14.5 km/h 95 % 0 mm 0.00 W/m2
21:47 3.5 °C 2.8 °C 1009.4 hPa South 16.1 km/h 22.5 km/h 95 % 0 mm 0.00 W/m2
21:52 3.4 °C 2.7 °C 1009.4 hPa SSE 14.5 km/h 27.4 km/h 95 % 5.33 mm 0.00 W/m2
21:57 3.4 °C 2.7 °C 1009.4 hPa South 12.9 km/h 30.6 km/h 95 % 4.83 mm 0.00 W/m2
22:02 3.3 °C 2.6 °C 1009.4 hPa South 30.6 km/h 30.6 km/h 95 % 6.86 mm 0.00 W/m2
22:07 3.2 °C 2.4 °C 1009.4 hPa South 12.9 km/h 33.8 km/h 95 % 7.11 mm 0.00 W/m2
22:12 3 °C 2.3 °C 1009.4 hPa South 29 km/h 29 km/h 95 % 5.08 mm 0.00 W/m2
22:17 2.8 °C 2.1 °C 1009 hPa SSE 20.9 km/h 25.7 km/h 95 % 3.56 mm 0.00 W/m2
22:22 2.8 °C 2.1 °C 1009 hPa South 11.3 km/h 16.1 km/h 95 % 3.05 mm 0.00 W/m2
22:27 2.8 °C 2.1 °C 1009 hPa SSW 22.5 km/h 32.2 km/h 95 % 2.29 mm 0.00 W/m2
22:32 2.8 °C 2.1 °C 1008.7 hPa WSW 9.7 km/h 20.9 km/h 95 % 1.52 mm 0.00 W/m2
22:37 2.8 °C 2.1 °C 1008.4 hPa South 1.6 km/h 22.5 km/h 95 % 1.27 mm 0.00 W/m2
22:42 2.8 °C 2.1 °C 1008.4 hPa South 11.3 km/h 16.1 km/h 95 % 1.27 mm 0.00 W/m2
22:47 2.8 °C 2.1 °C 1008.4 hPa SSE 19.3 km/h 19.3 km/h 95 % 1.78 mm 0.00 W/m2
22:52 2.9 °C 2.2 °C 1008.4 hPa SSE 14.5 km/h 22.5 km/h 95 % 2.29 mm 0.00 W/m2
22:57 2.9 °C 2.2 °C 1008.4 hPa South 16.1 km/h 22.5 km/h 95 % 3.56 mm 0.00 W/m2
23:02 2.9 °C 2.2 °C 1008 hPa SE 12.9 km/h 22.5 km/h 95 % 1.52 mm 0.00 W/m2
23:07 2.9 °C 2.2 °C 1007.7 hPa South 14.5 km/h 24.1 km/h 95 % 1.02 mm 0.00 W/m2
23:12 2.9 °C 2.2 °C 1007.7 hPa SE 16.1 km/h 19.3 km/h 95 % 0 mm 0.00 W/m2
23:17 2.9 °C 2.2 °C 1007.7 hPa SSW 9.7 km/h 14.5 km/h 95 % 7.11 mm 0.00 W/m2
23:22 3 °C 2.3 °C 1007.7 hPa SSE 14.5 km/h 22.5 km/h 95 % 2.54 mm 0.00 W/m2
23:27 3 °C 2.3 °C 1007.3 hPa South 14.5 km/h 19.3 km/h 95 % 1.52 mm 0.00 W/m2
23:32 3 °C 2.3 °C 1007.3 hPa South 1.6 km/h 19.3 km/h 95 % 1.27 mm 0.00 W/m2
23:37 3.1 °C 2.3 °C 1007.3 hPa SSE 8 km/h 16.1 km/h 95 % 1.27 mm 0.00 W/m2
23:42 3.1 °C 2.4 °C 1007 hPa SW 22.5 km/h 32.2 km/h 95 % 1.52 mm 0.00 W/m2
23:47 3.2 °C 2.6 °C 1007 hPa SE 22.5 km/h 27.4 km/h 96 % 1.52 mm 0.00 W/m2
23:52 3.3 °C 2.6 °C 1007 hPa SSE 24.1 km/h 32.2 km/h 95 % 1.02 mm 0.00 W/m2
23:57 3.3 °C 2.6 °C 1006.7 hPa South 12.9 km/h 29 km/h 95 % 0 mm 0.00 W/m2
Juneau County Weather
Compliments of Weather Underground - 4.5 mb
 WU-history PHP script courtesy of   Juneau County Weather.
powered by Cumulus v1.9.3 (1059)
Ambient Weather VWS v14.00
Top Contact Website Map Copyright © 2007 - 2018 Foresthillweather.com Never base important decisions on this or any weather information obtained from the Internet